createdAt,value
2018-01-13T00:00:54.799Z,0
2018-01-13T00:02:04.519Z,0
2018-01-13T00:03:14.234Z,0
2018-01-13T00:04:23.417Z,0
2018-01-13T00:05:33.395Z,0
2018-01-13T00:06:43.108Z,0
2018-01-13T00:07:52.820Z,0
2018-01-13T00:09:02.324Z,0
2018-01-13T00:10:12.296Z,0
2018-01-13T00:11:22.267Z,0
2018-01-13T00:12:32.255Z,0
2018-01-13T00:13:42.328Z,0
2018-01-13T00:14:52.303Z,0
2018-01-13T00:16:02.016Z,0
2018-01-13T00:17:11.990Z,0
2018-01-13T00:18:21.964Z,0
2018-01-13T00:19:31.724Z,0
2018-01-13T00:20:41.492Z,0
2018-01-13T00:21:51.200Z,0
2018-01-13T00:23:01.173Z,0
2018-01-13T00:24:11.145Z,0
2018-01-13T00:25:21.118Z,0
2018-01-13T00:26:31.090Z,0
2018-01-13T00:27:40.268Z,0
2018-01-13T00:28:49.983Z,0
2018-01-13T00:29:59.955Z,0
2018-01-13T00:31:09.934Z,0
2018-01-13T00:32:19.382Z,0
2018-01-13T00:33:29.139Z,0
2018-01-13T00:34:38.316Z,0
2018-01-13T00:35:48.108Z,0
2018-01-13T00:36:57.872Z,0
2018-01-13T00:38:07.583Z,0
2018-01-13T00:39:17.029Z,0
2018-01-13T00:40:26.744Z,0
2018-01-13T00:41:36.716Z,0
2018-01-13T00:42:46.838Z,0
2018-01-13T00:43:56.813Z,0
2018-01-13T00:45:06.788Z,0
2018-01-13T00:46:16.759Z,0
2018-01-13T00:47:26.730Z,0
2018-01-13T00:48:36.702Z,0
2018-01-13T00:49:46.462Z,0
2018-01-13T00:50:56.168Z,0
2018-01-13T00:52:06.166Z,0
2018-01-13T00:53:16.137Z,0
2018-01-13T00:54:25.845Z,0
2018-01-13T00:55:35.816Z,0
2018-01-13T00:56:45.259Z,0
2018-01-13T00:57:54.970Z,0
2018-01-13T00:59:04.679Z,0
2018-01-13T01:00:14.658Z,0
2018-01-13T01:01:24.638Z,0
2018-01-13T01:02:34.347Z,0
2018-01-13T01:03:44.056Z,0
2018-01-13T01:04:54.030Z,0
2018-01-13T01:06:03.737Z,0
2018-01-13T01:07:13.443Z,0
2018-01-13T01:08:23.416Z,0
2018-01-13T01:09:33.131Z,0
2018-01-13T01:10:42.837Z,0
2018-01-13T01:11:52.555Z,0
2018-01-13T01:13:01.732Z,0
2018-01-13T01:14:11.707Z,0
2018-01-13T01:15:21.415Z,0
2018-01-13T01:16:31.388Z,0
2018-01-13T01:17:40.833Z,0
2018-01-13T01:18:50.593Z,0
2018-01-13T01:20:00.318Z,0
2018-01-13T01:21:10.030Z,0
2018-01-13T01:22:20.054Z,0
2018-01-13T01:23:29.764Z,0
2018-01-13T01:24:39.212Z,0
2018-01-13T01:25:49.184Z,0
2018-01-13T01:26:59.162Z,0
2018-01-13T01:28:08.613Z,0
2018-01-13T01:29:18.591Z,0
2018-01-13T01:30:28.573Z,0
2018-01-13T01:31:38.589Z,0
2018-01-13T01:32:48.045Z,0
2018-01-13T01:33:58.019Z,0
2018-01-13T01:35:07.728Z,0
2018-01-13T01:36:17.707Z,0
2018-01-13T01:37:27.680Z,0
2018-01-13T01:38:37.394Z,0
2018-01-13T01:39:47.374Z,0
2018-01-13T01:40:57.103Z,0
2018-01-13T01:42:06.812Z,0
2018-01-13T01:43:16.787Z,0
2018-01-13T01:44:26.229Z,0
2018-01-13T01:45:36.200Z,0
2018-01-13T01:46:46.170Z,0
2018-01-13T01:47:56.143Z,0
2018-01-13T01:49:05.853Z,0
2018-01-13T01:50:15.296Z,0
2018-01-13T01:51:25.004Z,0
2018-01-13T01:52:34.718Z,0
2018-01-13T01:53:44.420Z,0
2018-01-13T01:54:54.392Z,0
2018-01-13T01:56:04.365Z,0
2018-01-13T01:57:13.813Z,0
2018-01-13T01:58:23.785Z,0
2018-01-13T01:59:33.756Z,0
2018-01-13T02:00:43.203Z,0
2018-01-13T02:01:52.696Z,0
2018-01-13T02:03:02.405Z,0
2018-01-13T02:04:11.902Z,0
2018-01-13T02:05:21.351Z,0
2018-01-13T02:06:31.324Z,0
2018-01-13T02:07:41.037Z,0
2018-01-13T02:08:51.066Z,0
2018-01-13T02:10:01.048Z,0
2018-01-13T02:11:10.809Z,0
2018-01-13T02:12:20.786Z,0
2018-01-13T02:13:30.226Z,0
2018-01-13T02:14:40.200Z,0
2018-01-13T02:15:49.957Z,0
2018-01-13T02:16:59.401Z,0
2018-01-13T02:18:09.375Z,0
2018-01-13T02:19:19.087Z,0
2018-01-13T02:20:28.795Z,0
2018-01-13T02:21:38.249Z,0
2018-01-13T02:22:48.216Z,0
2018-01-13T02:23:58.203Z,0
2018-01-13T02:25:07.387Z,0
2018-01-13T02:26:17.121Z,0
2018-01-13T02:27:27.110Z,0
2018-01-13T02:28:36.821Z,0
2018-01-13T02:29:46.270Z,0
2018-01-13T02:30:56.257Z,0
2018-01-13T02:32:05.969Z,0
2018-01-13T02:33:15.678Z,0
2018-01-13T02:34:25.657Z,0
2018-01-13T02:35:35.366Z,0
2018-01-13T02:36:45.078Z,0
2018-01-13T02:37:54.791Z,0
2018-01-13T02:39:04.512Z,0
2018-01-13T02:40:14.276Z,0
2018-01-13T02:41:24.248Z,0
2018-01-13T02:42:33.763Z,0
2018-01-13T02:43:43.745Z,0
2018-01-13T02:44:53.824Z,0
2018-01-13T02:46:03.534Z,0
2018-01-13T02:47:13.246Z,0
2018-01-13T02:48:23.228Z,0
2018-01-13T02:49:32.940Z,0
2018-01-13T02:50:42.651Z,0
2018-01-13T02:51:52.628Z,0
2018-01-13T02:53:02.337Z,0
2018-01-13T02:54:12.319Z,0
2018-01-13T02:55:22.031Z,0
2018-01-13T02:56:32.052Z,0
2018-01-13T02:57:41.765Z,0
2018-01-13T02:58:51.735Z,0
2018-01-13T03:00:01.465Z,0
2018-01-13T03:01:11.447Z,0
2018-01-13T03:02:21.427Z,0
2018-01-13T03:03:31.133Z,0
2018-01-13T03:04:40.576Z,0
2018-01-13T03:05:50.287Z,0
2018-01-13T03:06:59.994Z,0
2018-01-13T03:08:09.702Z,0
2018-01-13T03:09:19.677Z,0
2018-01-13T03:10:29.658Z,0
2018-01-13T03:11:39.629Z,0
2018-01-13T03:12:49.342Z,0
2018-01-13T03:13:59.314Z,0
2018-01-13T03:15:09.292Z,0
2018-01-13T03:16:18.999Z,0
2018-01-13T03:17:28.713Z,0
2018-01-13T03:18:38.420Z,0
2018-01-13T03:19:48.540Z,0
2018-01-13T03:20:58.513Z,0
2018-01-13T03:22:07.959Z,0
2018-01-13T03:23:17.675Z,0
2018-01-13T03:24:27.389Z,0
2018-01-13T03:25:37.099Z,0
2018-01-13T03:26:46.808Z,0
2018-01-13T03:27:56.777Z,0
2018-01-13T03:29:06.487Z,0
2018-01-13T03:30:16.268Z,0
2018-01-13T03:31:26.352Z,0
2018-01-13T03:32:36.330Z,0
2018-01-13T03:33:46.036Z,0
2018-01-13T03:34:55.480Z,0
2018-01-13T03:36:05.461Z,0
2018-01-13T03:37:14.954Z,0
2018-01-13T03:38:24.930Z,0
2018-01-13T03:39:34.374Z,0
2018-01-13T03:40:44.083Z,0
2018-01-13T03:41:54.054Z,0
2018-01-13T03:43:03.513Z,0
2018-01-13T03:44:13.280Z,0
2018-01-13T03:45:22.730Z,0
2018-01-13T03:46:32.704Z,0
2018-01-13T03:47:42.146Z,0
2018-01-13T03:48:51.860Z,0
2018-01-13T03:50:01.838Z,0
2018-01-13T03:51:11.812Z,0
2018-01-13T03:52:21.782Z,0
2018-01-13T03:53:31.754Z,0
2018-01-13T03:54:41.197Z,0
2018-01-13T03:55:50.644Z,0
2018-01-13T03:57:00.358Z,0
2018-01-13T03:58:10.332Z,0
2018-01-13T03:59:20.301Z,0
2018-01-13T04:00:30.010Z,0
2018-01-13T04:04:12.724Z,0
2018-01-13T04:05:22.430Z,0
2018-01-13T04:06:32.403Z,0
2018-01-13T04:07:41.588Z,0
2018-01-13T04:08:51.039Z,0
2018-01-13T04:10:00.755Z,0
2018-01-13T04:11:09.937Z,0
2018-01-13T04:12:19.911Z,0
2018-01-13T04:13:29.891Z,0
2018-01-13T04:14:39.866Z,0
2018-01-13T04:15:49.841Z,0
2018-01-13T04:16:59.865Z,0
2018-01-13T04:18:09.578Z,0
2018-01-13T04:19:19.284Z,0
2018-01-13T04:20:28.995Z,0
2018-01-13T04:21:37.912Z,0
2018-01-13T04:22:47.882Z,0
2018-01-13T04:23:57.590Z,0
2018-01-13T04:25:07.560Z,0
2018-01-13T04:26:17.534Z,0
2018-01-13T04:27:27.509Z,0
2018-01-13T04:28:36.954Z,0
2018-01-13T04:29:46.925Z,0
2018-01-13T04:30:56.635Z,0
2018-01-13T04:32:06.610Z,0
2018-01-13T04:33:16.319Z,0
2018-01-13T04:34:25.766Z,0
2018-01-13T04:35:35.479Z,0
2018-01-13T04:36:45.455Z,0
2018-01-13T04:37:55.167Z,0
2018-01-13T04:39:04.881Z,0
2018-01-13T04:40:14.855Z,0
2018-01-13T04:41:24.563Z,0
2018-01-13T04:42:34.271Z,0
2018-01-13T04:43:43.979Z,0
2018-01-13T04:44:53.687Z,0
2018-01-13T04:46:03.453Z,0
2018-01-13T04:47:13.163Z,0
2018-01-13T04:48:23.132Z,0
2018-01-13T04:49:32.580Z,0
2018-01-13T04:50:41.762Z,0
2018-01-13T04:51:51.783Z,0
2018-01-13T04:53:01.492Z,0
2018-01-13T04:54:11.475Z,0
2018-01-13T04:55:21.453Z,0
2018-01-13T04:56:31.437Z,0
2018-01-13T04:57:41.144Z,0
2018-01-13T04:58:50.857Z,0
2018-01-13T05:00:00.838Z,0
2018-01-13T05:01:10.547Z,0
2018-01-13T05:02:20.519Z,0
2018-01-13T05:03:30.498Z,0
2018-01-13T05:04:39.947Z,0
2018-01-13T05:05:49.920Z,0
2018-01-13T05:06:59.891Z,0
2018-01-13T05:08:09.863Z,0
2018-01-13T05:09:19.307Z,0
2018-01-13T05:10:29.019Z,0
2018-01-13T05:11:38.462Z,0
2018-01-13T05:12:48.439Z,0
2018-01-13T05:13:58.418Z,0
2018-01-13T05:15:08.392Z,0
2018-01-13T05:16:18.107Z,0
2018-01-13T05:17:28.083Z,0
2018-01-13T05:18:37.795Z,0
2018-01-13T05:19:47.504Z,0
2018-01-13T05:20:57.212Z,0
2018-01-13T05:22:06.926Z,0
2018-01-13T05:23:16.633Z,0
2018-01-13T05:24:26.348Z,0
2018-01-13T05:25:36.329Z,0
2018-01-13T05:26:45.774Z,0
2018-01-13T05:27:55.482Z,0
2018-01-13T05:29:05.454Z,0
2018-01-13T05:30:14.634Z,0
2018-01-13T05:31:24.619Z,0
2018-01-13T05:32:34.592Z,0
2018-01-13T05:33:44.297Z,0
2018-01-13T05:34:54.270Z,0
2018-01-13T05:36:04.246Z,0
2018-01-13T05:37:14.219Z,0
2018-01-13T05:38:23.667Z,0
2018-01-13T05:39:33.375Z,0
2018-01-13T05:40:43.346Z,0
2018-01-13T05:41:52.528Z,0
2018-01-13T05:43:02.021Z,0
2018-01-13T05:44:12.094Z,0
2018-01-13T05:45:22.066Z,0
2018-01-13T05:46:32.035Z,0
2018-01-13T05:47:41.748Z,0
2018-01-13T05:48:51.721Z,0
2018-01-13T05:50:01.692Z,0
2018-01-13T05:51:11.667Z,0
2018-01-13T05:52:21.382Z,0
2018-01-13T05:53:31.364Z,0
2018-01-13T05:54:40.579Z,0
2018-01-13T05:55:50.550Z,0
2018-01-13T05:57:00.259Z,0
2018-01-13T05:58:10.248Z,0
2018-01-13T05:59:20.218Z,0
2018-01-13T06:00:30.192Z,0
2018-01-13T06:01:40.207Z,0
2018-01-13T06:02:50.186Z,0
2018-01-13T06:03:59.629Z,0
2018-01-13T06:05:09.610Z,0
2018-01-13T06:06:19.582Z,0
2018-01-13T06:07:29.554Z,0
2018-01-13T06:08:39.262Z,0
2018-01-13T06:09:48.980Z,0
2018-01-13T06:10:58.696Z,0
2018-01-13T06:12:08.142Z,0
2018-01-13T06:13:18.109Z,0
2018-01-13T06:14:27.551Z,0
2018-01-13T06:15:37.520Z,0
2018-01-13T06:16:47.232Z,0
2018-01-13T06:17:56.944Z,0
2018-01-13T06:19:06.706Z,0
2018-01-13T06:20:16.419Z,0
2018-01-13T06:21:26.139Z,0
2018-01-13T06:22:35.582Z,0
2018-01-13T06:23:45.554Z,0
2018-01-13T06:24:55.260Z,0
2018-01-13T06:26:05.232Z,0
2018-01-13T06:27:14.942Z,0
2018-01-13T06:28:24.387Z,0
2018-01-13T06:29:34.150Z,0
2018-01-13T06:30:44.206Z,0
2018-01-13T06:31:54.189Z,0
2018-01-13T06:33:04.161Z,0
2018-01-13T06:34:14.136Z,0
2018-01-13T06:35:24.108Z,0
2018-01-13T06:36:33.557Z,0
2018-01-13T06:37:43.265Z,0
2018-01-13T06:38:53.237Z,0
2018-01-13T06:40:02.948Z,0
2018-01-13T06:41:12.403Z,0
2018-01-13T06:42:22.385Z,0
2018-01-13T06:43:32.355Z,0
2018-01-13T06:44:42.069Z,0
2018-01-13T06:45:52.043Z,0
2018-01-13T06:47:02.016Z,0
2018-01-13T06:48:11.990Z,0
2018-01-13T06:49:21.964Z,0
2018-01-13T06:50:31.944Z,0
2018-01-13T06:51:41.650Z,0
2018-01-13T06:52:51.623Z,0
2018-01-13T06:54:01.648Z,0
2018-01-13T06:55:11.623Z,0
2018-01-13T06:56:21.602Z,0
2018-01-13T06:57:31.586Z,0
2018-01-13T06:58:41.568Z,0
2018-01-13T06:59:51.544Z,0
2018-01-13T07:01:01.519Z,0
2018-01-13T07:02:10.982Z,0
2018-01-13T07:03:20.956Z,0
2018-01-13T07:04:30.447Z,0
2018-01-13T07:05:40.421Z,0
2018-01-13T07:06:50.139Z,0
2018-01-13T07:08:00.166Z,0
2018-01-13T07:09:10.150Z,0
2018-01-13T07:10:19.858Z,0
2018-01-13T07:11:29.665Z,0
2018-01-13T07:12:39.637Z,0
2018-01-13T07:13:49.620Z,0
2018-01-13T07:14:59.596Z,0
2018-01-13T07:16:09.049Z,0
2018-01-13T07:17:19.078Z,0
2018-01-13T07:18:28.786Z,0
2018-01-13T07:19:37.968Z,0
2018-01-13T07:20:47.940Z,0
2018-01-13T07:21:57.912Z,0
2018-01-13T07:23:07.885Z,0
2018-01-13T07:24:17.592Z,0
2018-01-13T07:25:27.602Z,0
2018-01-13T07:26:37.584Z,0
2018-01-13T07:27:47.291Z,0
2018-01-13T07:28:57.415Z,0
2018-01-13T07:30:07.127Z,0
2018-01-13T07:31:16.833Z,0
2018-01-13T07:32:26.818Z,0
2018-01-13T07:33:36.529Z,0
2018-01-13T07:34:46.555Z,0
2018-01-13T07:35:56.534Z,0
2018-01-13T07:37:06.511Z,0
2018-01-13T07:38:16.221Z,0
2018-01-13T07:39:26.196Z,0
2018-01-13T07:40:35.375Z,0
2018-01-13T07:41:45.136Z,0
2018-01-13T07:42:55.114Z,0
2018-01-13T07:44:04.294Z,0
2018-01-13T07:45:14.268Z,0
2018-01-13T07:46:24.242Z,0
2018-01-13T07:47:33.950Z,0
2018-01-13T07:48:43.926Z,0
2018-01-13T07:49:53.898Z,0
2018-01-13T07:51:03.883Z,0
2018-01-13T07:52:13.906Z,0
2018-01-13T07:53:23.617Z,0
2018-01-13T07:54:33.062Z,0
2018-01-13T07:55:42.510Z,0
2018-01-13T07:56:52.483Z,0
2018-01-13T07:58:02.458Z,0
2018-01-13T07:59:12.169Z,0
2018-01-13T08:00:22.141Z,0
2018-01-13T08:01:32.112Z,5
2018-01-13T08:02:41.560Z,5
2018-01-13T08:03:51.317Z,5
2018-01-13T08:05:01.294Z,5
2018-01-13T08:06:11.273Z,5
2018-01-13T08:07:21.246Z,5
2018-01-13T08:08:30.953Z,5
2018-01-13T08:09:40.448Z,5
2018-01-13T08:10:50.155Z,5
2018-01-13T08:11:59.865Z,5
2018-01-13T08:13:09.576Z,10
2018-01-13T08:14:19.284Z,10
2018-01-13T08:15:29.268Z,10
2018-01-13T08:16:38.985Z,10
2018-01-13T08:17:48.697Z,10
2018-01-13T08:18:58.142Z,10
2018-01-13T08:20:07.591Z,15
2018-01-13T08:21:17.571Z,15
2018-01-13T08:22:27.544Z,15
2018-01-13T08:23:37.518Z,15
2018-01-13T08:24:47.500Z,15
2018-01-13T08:25:57.477Z,15
2018-01-13T08:27:07.192Z,20
2018-01-13T08:28:16.977Z,20
2018-01-13T08:29:26.681Z,20
2018-01-13T08:30:36.660Z,20
2018-01-13T08:31:46.380Z,20
2018-01-13T08:32:56.450Z,25
2018-01-13T08:34:05.893Z,25
2018-01-13T08:35:15.075Z,25
2018-01-13T08:36:24.787Z,25
2018-01-13T08:37:34.495Z,30
2018-01-13T08:38:44.464Z,30
2018-01-13T08:39:53.937Z,30
2018-01-13T08:41:03.914Z,30
2018-01-13T08:42:13.889Z,30
2018-01-13T08:43:23.603Z,35
2018-01-13T08:44:33.321Z,35
2018-01-13T08:45:43.031Z,35
2018-01-13T08:46:53.014Z,35
2018-01-13T08:48:02.987Z,35
2018-01-13T08:49:12.961Z,35
2018-01-13T08:50:22.405Z,35
2018-01-13T08:51:32.377Z,40
2018-01-13T08:52:42.086Z,40
2018-01-13T08:53:52.060Z,40
2018-01-13T08:55:02.033Z,45
2018-01-13T08:56:11.745Z,45
2018-01-13T08:57:21.452Z,45
2018-01-13T08:58:30.896Z,50
2018-01-13T08:59:40.867Z,50
2018-01-13T09:00:50.583Z,50
2018-01-13T09:02:00.299Z,50
2018-01-13T09:03:10.009Z,55
2018-01-13T09:04:19.986Z,50
2018-01-13T09:05:29.694Z,55
2018-01-13T09:06:39.779Z,55
2018-01-13T09:07:49.492Z,55
2018-01-13T09:08:59.207Z,60
2018-01-13T09:10:09.179Z,60
2018-01-13T09:11:18.892Z,65
2018-01-13T09:12:28.868Z,65
2018-01-13T09:13:38.046Z,65
2018-01-13T09:14:48.028Z,65
2018-01-13T09:15:58.004Z,70
2018-01-13T09:17:07.714Z,70
2018-01-13T09:18:17.424Z,70
2018-01-13T09:19:27.190Z,70
2018-01-13T09:20:36.672Z,70
2018-01-13T09:21:46.387Z,70
2018-01-13T09:22:56.359Z,70
2018-01-13T09:24:06.070Z,75
2018-01-13T09:25:16.045Z,80
2018-01-13T09:26:25.754Z,85
2018-01-13T09:27:35.201Z,85
2018-01-13T09:28:44.645Z,85
2018-01-13T09:29:54.622Z,85
2018-01-13T09:31:04.639Z,85
2018-01-13T09:32:14.085Z,90
2018-01-13T09:33:24.096Z,90
2018-01-13T09:34:33.542Z,90
2018-01-13T09:35:43.518Z,90
2018-01-13T09:36:53.489Z,90
2018-01-13T09:38:03.467Z,95
2018-01-13T09:39:12.911Z,95
2018-01-13T09:40:22.887Z,95
2018-01-13T09:41:32.896Z,95
2018-01-13T09:42:42.871Z,95
2018-01-13T09:43:52.590Z,95
2018-01-13T09:45:02.683Z,95
2018-01-13T09:46:12.400Z,95
2018-01-13T09:47:22.429Z,100
2018-01-13T09:48:32.143Z,100
2018-01-13T09:49:42.118Z,100
2018-01-13T09:50:52.095Z,100
2018-01-13T09:52:01.810Z,100
2018-01-13T09:53:11.784Z,100
2018-01-13T09:54:21.753Z,100
2018-01-13T09:55:31.734Z,100
2018-01-13T09:56:41.178Z,100
2018-01-13T09:57:51.161Z,100
2018-01-13T09:59:00.868Z,100
2018-01-13T10:00:10.585Z,105
2018-01-13T10:01:20.565Z,105
2018-01-13T10:02:30.541Z,105
2018-01-13T10:03:40.786Z,105
2018-01-13T10:04:50.536Z,105
2018-01-13T10:06:00.540Z,110
2018-01-13T10:07:10.250Z,110
2018-01-13T10:08:19.962Z,110
2018-01-13T10:09:29.937Z,110
2018-01-13T10:10:39.915Z,115
2018-01-13T10:11:49.538Z,115
2018-01-13T10:12:59.256Z,115
2018-01-13T10:14:08.969Z,115
2018-01-13T10:15:18.412Z,115
2018-01-13T10:16:28.433Z,110
2018-01-13T10:17:38.446Z,110
2018-01-13T10:18:48.419Z,110
2018-01-13T10:19:58.136Z,110
2018-01-13T10:21:07.860Z,110
2018-01-13T10:22:17.645Z,110
2018-01-13T10:23:27.455Z,115
2018-01-13T10:24:37.176Z,115
2018-01-13T10:25:46.894Z,115
2018-01-13T10:26:56.077Z,115
2018-01-13T10:28:05.804Z,115
2018-01-13T10:29:14.984Z,115
2018-01-13T10:30:24.748Z,110
2018-01-13T10:31:34.192Z,110
2018-01-13T10:32:44.170Z,115
2018-01-13T10:33:54.145Z,115
2018-01-13T10:35:04.177Z,115
2018-01-13T10:36:14.149Z,115
2018-01-13T10:37:24.121Z,115
2018-01-13T10:38:33.566Z,115
2018-01-13T10:39:43.548Z,115
2018-01-13T10:40:53.527Z,115
2018-01-13T10:42:03.234Z,115
2018-01-13T10:43:13.212Z,115
2018-01-13T10:44:23.189Z,115
2018-01-13T10:45:32.640Z,115
2018-01-13T10:46:42.388Z,115
2018-01-13T10:47:52.366Z,115
2018-01-13T10:49:02.352Z,115
2018-01-13T10:50:12.325Z,115
2018-01-13T10:51:22.298Z,115
2018-01-13T10:52:32.044Z,115
2018-01-13T10:53:41.758Z,120
2018-01-13T10:54:51.470Z,120
2018-01-13T10:56:01.445Z,120
2018-01-13T10:57:10.892Z,115
2018-01-13T10:58:20.339Z,120
2018-01-13T10:59:30.057Z,120
2018-01-13T11:00:39.240Z,120
2018-01-13T11:01:49.268Z,120
2018-01-13T11:02:58.979Z,120
2018-01-13T11:04:08.960Z,120
2018-01-13T11:05:18.668Z,125
2018-01-13T11:06:28.641Z,120
2018-01-13T11:07:38.616Z,120
2018-01-13T11:08:48.323Z,120
2018-01-13T11:09:58.036Z,120
2018-01-13T11:11:08.010Z,120
2018-01-13T11:12:17.540Z,120
2018-01-13T11:13:27.516Z,120
2018-01-13T11:14:37.226Z,120
2018-01-13T11:15:47.202Z,120
2018-01-13T11:16:57.177Z,120
2018-01-13T11:18:07.157Z,120
2018-01-13T11:19:17.180Z,120
2018-01-13T11:20:27.153Z,125
2018-01-13T11:21:36.868Z,130
2018-01-13T11:22:46.859Z,130
2018-01-13T11:23:56.573Z,135
2018-01-13T11:25:06.552Z,135
2018-01-13T11:26:15.996Z,135
2018-01-13T11:27:25.703Z,130
2018-01-13T11:28:35.677Z,125
2018-01-13T11:29:45.655Z,120
2018-01-13T11:30:55.426Z,120
2018-01-13T11:32:05.136Z,120
2018-01-13T11:33:14.418Z,120
2018-01-13T11:34:24.140Z,120
2018-01-13T11:35:33.600Z,115
2018-01-13T11:36:43.055Z,115
2018-01-13T11:37:53.050Z,115
2018-01-13T11:39:02.863Z,120
2018-01-13T11:40:12.576Z,120
2018-01-13T11:41:22.294Z,125
2018-01-13T11:42:32.268Z,135
2018-01-13T11:43:41.716Z,130
2018-01-13T11:44:51.427Z,130
2018-01-13T11:46:00.877Z,125
2018-01-13T11:47:10.326Z,125
2018-01-13T11:48:20.304Z,125
2018-01-13T11:49:30.286Z,125
2018-01-13T11:50:39.731Z,125
2018-01-13T11:51:49.443Z,125
2018-01-13T11:52:59.470Z,130
2018-01-13T11:54:09.177Z,130
2018-01-13T11:55:18.890Z,125
2018-01-13T11:56:28.869Z,120
2018-01-13T11:57:38.318Z,115
2018-01-13T11:58:48.425Z,115
2018-01-13T11:59:58.140Z,120
2018-01-13T12:01:07.851Z,120
2018-01-13T12:02:17.567Z,125
2018-01-13T12:03:27.333Z,120
2018-01-13T12:04:37.173Z,120
2018-01-13T12:05:46.887Z,115
2018-01-13T12:06:56.599Z,115
2018-01-13T12:08:06.357Z,115
2018-01-13T12:09:15.806Z,120
2018-01-13T12:10:25.780Z,120
2018-01-13T12:11:35.494Z,115
2018-01-13T12:12:45.206Z,115
2018-01-13T12:13:54.652Z,115
2018-01-13T12:15:04.099Z,115
2018-01-13T12:16:13.820Z,115
2018-01-13T12:17:23.798Z,115
2018-01-13T12:18:33.513Z,110
2018-01-13T12:19:43.488Z,110
2018-01-13T12:20:53.199Z,110
2018-01-13T12:22:03.174Z,110
2018-01-13T12:23:12.885Z,110
2018-01-13T12:24:22.601Z,110
2018-01-13T12:25:32.626Z,115
2018-01-13T12:26:42.337Z,110
2018-01-13T12:27:51.788Z,105
2018-01-13T12:29:01.251Z,105
2018-01-13T12:30:10.705Z,105
2018-01-13T12:31:20.684Z,105
2018-01-13T12:32:30.659Z,105
2018-01-13T12:33:40.634Z,105
2018-01-13T12:34:49.819Z,105
2018-01-13T12:35:59.795Z,105
2018-01-13T12:37:09.508Z,105
2018-01-13T12:38:19.491Z,105
2018-01-13T12:39:29.238Z,105
2018-01-13T12:40:38.687Z,105
2018-01-13T12:41:48.676Z,105
2018-01-13T12:42:58.132Z,100
2018-01-13T12:44:07.841Z,100
2018-01-13T12:45:17.024Z,100
2018-01-13T12:46:26.736Z,100
2018-01-13T12:47:36.765Z,95
2018-01-13T12:48:46.741Z,90
2018-01-13T12:49:56.718Z,90
2018-01-13T12:51:06.703Z,85
2018-01-13T12:52:16.686Z,85
2018-01-13T12:53:26.129Z,85
2018-01-13T12:54:35.881Z,85
2018-01-13T12:55:45.329Z,85
2018-01-13T12:56:54.777Z,80
2018-01-13T12:58:04.488Z,80
2018-01-13T12:59:14.518Z,80
2018-01-13T13:00:24.503Z,80
2018-01-13T13:01:33.957Z,80
2018-01-13T13:02:43.667Z,80
2018-01-13T13:03:53.640Z,80
2018-01-13T13:05:03.351Z,75
2018-01-13T13:06:12.847Z,75
2018-01-13T13:07:22.825Z,75
2018-01-13T13:08:32.804Z,75
2018-01-13T13:09:42.777Z,70
2018-01-13T13:10:52.759Z,70
2018-01-13T13:12:02.740Z,70
2018-01-13T13:13:12.450Z,75
2018-01-13T13:14:21.908Z,80
2018-01-13T13:15:31.881Z,75
2018-01-13T13:16:41.350Z,70
2018-01-13T13:17:51.325Z,65
2018-01-13T13:19:01.353Z,65
2018-01-13T13:20:11.070Z,65
2018-01-13T13:21:20.781Z,65
2018-01-13T13:22:30.490Z,65
2018-01-13T13:23:40.577Z,60
2018-01-13T13:24:50.290Z,60
2018-01-13T13:25:59.738Z,60
2018-01-13T13:27:09.449Z,60
2018-01-13T13:28:18.895Z,60
2018-01-13T13:29:28.869Z,60
2018-01-13T13:30:38.058Z,60
2018-01-13T13:31:48.035Z,55
2018-01-13T13:32:57.746Z,50
2018-01-13T13:34:07.190Z,50
2018-01-13T13:35:17.167Z,50
2018-01-13T13:36:26.875Z,50
2018-01-13T13:37:36.055Z,50
2018-01-13T13:38:46.032Z,45
2018-01-13T13:39:55.742Z,45
2018-01-13T13:41:05.729Z,45
2018-01-13T13:42:15.703Z,45
2018-01-13T13:43:25.683Z,45
2018-01-13T13:44:35.392Z,40
2018-01-13T13:45:45.441Z,40
2018-01-13T13:46:55.435Z,40
2018-01-13T13:48:05.591Z,40
2018-01-13T13:49:15.616Z,40
2018-01-13T13:50:25.598Z,35
2018-01-13T13:51:35.572Z,35
2018-01-13T13:52:45.281Z,30
2018-01-13T13:53:55.255Z,30
2018-01-13T13:55:04.969Z,30
2018-01-13T13:56:14.680Z,30
2018-01-13T13:57:24.423Z,30
2018-01-13T13:58:33.882Z,30
2018-01-13T13:59:43.597Z,25
2018-01-13T14:00:53.574Z,25
2018-01-13T14:02:03.303Z,25
2018-01-13T14:03:13.277Z,25
2018-01-13T14:04:23.251Z,25
2018-01-13T14:05:33.227Z,25
2018-01-13T14:06:42.412Z,25
2018-01-13T14:07:52.116Z,20
2018-01-13T14:09:02.092Z,20
2018-01-13T14:10:11.804Z,20
2018-01-13T14:11:21.776Z,20
2018-01-13T14:12:31.485Z,20
2018-01-13T14:13:43.206Z,20
2018-01-13T14:14:53.181Z,15
2018-01-13T14:16:03.253Z,15
2018-01-13T14:17:12.964Z,15
2018-01-13T14:18:22.418Z,15
2018-01-13T14:19:32.412Z,15
2018-01-13T14:20:42.129Z,15
2018-01-13T14:21:52.100Z,10
2018-01-13T14:23:02.076Z,10
2018-01-13T14:24:12.051Z,10
2018-01-13T14:25:22.028Z,10
2018-01-13T14:26:31.738Z,10
2018-01-13T14:27:41.718Z,10
2018-01-13T14:28:51.694Z,5
2018-01-13T14:30:01.670Z,5
2018-01-13T14:31:11.650Z,5
2018-01-13T14:32:21.095Z,5
2018-01-13T14:33:30.814Z,5
2018-01-13T14:34:40.587Z,5
2018-01-13T14:35:50.632Z,5
2018-01-13T14:37:00.348Z,5
2018-01-13T14:38:10.068Z,5
2018-01-13T14:39:20.095Z,5
2018-01-13T14:40:29.282Z,5
2018-01-13T14:41:39.003Z,5
2018-01-13T14:42:48.713Z,5
2018-01-13T14:43:58.479Z,5
2018-01-13T14:45:08.247Z,5
2018-01-13T14:46:18.005Z,0
2018-01-13T14:47:27.987Z,0
2018-01-13T14:48:37.713Z,0
2018-01-13T14:49:47.435Z,0
2018-01-13T14:50:57.257Z,0
2018-01-13T14:52:07.242Z,0
2018-01-13T14:53:16.959Z,0
2018-01-13T14:54:26.935Z,0
2018-01-13T14:55:36.389Z,0
2018-01-13T14:56:46.098Z,0
2018-01-13T14:57:56.079Z,0
2018-01-13T14:59:05.788Z,0
2018-01-13T15:00:15.237Z,0
2018-01-13T15:01:25.249Z,0
2018-01-13T15:02:35.066Z,0
2018-01-13T15:03:45.077Z,0
2018-01-13T15:04:55.054Z,0
2018-01-13T15:06:05.092Z,0
2018-01-13T15:07:14.804Z,0
2018-01-13T15:08:24.513Z,0
2018-01-13T15:09:34.224Z,0
2018-01-13T15:10:44.199Z,0
2018-01-13T15:11:54.174Z,0
2018-01-13T15:13:03.883Z,0
2018-01-13T15:14:13.326Z,0
2018-01-13T15:15:23.043Z,0
2018-01-13T15:16:32.762Z,0
2018-01-13T15:17:42.736Z,0
2018-01-13T15:18:52.450Z,0
2018-01-13T15:20:02.458Z,0
2018-01-13T15:21:12.169Z,0
2018-01-13T15:22:21.887Z,0
2018-01-13T15:23:31.873Z,0
2018-01-13T15:24:41.580Z,0
2018-01-13T15:25:51.634Z,0
2018-01-13T15:27:01.618Z,0
2018-01-13T15:28:11.598Z,0
2018-01-13T15:29:21.307Z,0
2018-01-13T15:30:31.018Z,0
2018-01-13T15:31:40.828Z,0
2018-01-13T15:32:50.541Z,0
2018-01-13T15:33:59.986Z,0
2018-01-13T15:35:09.697Z,0
2018-01-13T15:36:19.407Z,0
2018-01-13T15:37:29.116Z,0
2018-01-13T15:38:39.100Z,0
2018-01-13T15:39:48.548Z,0
2018-01-13T15:40:58.267Z,0
2018-01-13T15:42:07.472Z,0
2018-01-13T15:43:17.178Z,0
2018-01-13T15:44:26.625Z,0
2018-01-13T15:45:36.340Z,0
2018-01-13T15:46:46.047Z,0
2018-01-13T15:47:56.028Z,0
2018-01-13T15:49:05.740Z,0
2018-01-13T15:50:14.921Z,0
2018-01-13T15:51:24.900Z,0
2018-01-13T15:52:34.610Z,0
2018-01-13T15:53:44.325Z,0
2018-01-13T15:54:54.357Z,0
2018-01-13T15:56:04.332Z,0
2018-01-13T15:57:14.305Z,0
2018-01-13T15:58:24.018Z,0
2018-01-13T15:59:33.762Z,0
2018-01-13T16:00:43.472Z,0
2018-01-13T16:01:53.179Z,0
2018-01-13T16:03:02.900Z,0
2018-01-13T16:04:12.874Z,0
2018-01-13T16:05:22.331Z,0
2018-01-13T16:06:32.306Z,0
2018-01-13T16:07:42.281Z,0
2018-01-13T16:08:51.730Z,0
2018-01-13T16:10:01.706Z,0
2018-01-13T16:11:11.154Z,0
2018-01-13T16:12:20.647Z,0
2018-01-13T16:13:30.091Z,0
2018-01-13T16:14:40.070Z,0
2018-01-13T16:15:50.047Z,0
2018-01-13T16:17:00.070Z,0
2018-01-13T16:18:10.147Z,0
2018-01-13T16:19:20.124Z,0
2018-01-13T16:20:30.094Z,0
2018-01-13T16:21:39.806Z,0
2018-01-13T16:22:49.250Z,0
2018-01-13T16:23:59.227Z,0
2018-01-13T16:25:08.942Z,0
2018-01-13T16:26:18.651Z,0
2018-01-13T16:27:28.624Z,0
2018-01-13T16:28:38.333Z,0
2018-01-13T16:29:48.304Z,0
2018-01-13T16:30:58.280Z,0
2018-01-13T16:32:07.997Z,0
2018-01-13T16:33:17.442Z,0
2018-01-13T16:34:26.891Z,0
2018-01-13T16:35:36.864Z,0
2018-01-13T16:36:46.839Z,0
2018-01-13T16:37:56.815Z,0
2018-01-13T16:39:06.266Z,0
2018-01-13T16:40:15.711Z,0
2018-01-13T16:41:25.427Z,0
2018-01-13T16:42:35.405Z,0
2018-01-13T16:43:45.121Z,0
2018-01-13T16:44:54.829Z,0
2018-01-13T16:46:04.817Z,0
2018-01-13T16:47:14.600Z,0
2018-01-13T16:48:24.578Z,0
2018-01-13T16:49:34.023Z,0
2018-01-13T16:50:43.740Z,0
2018-01-13T16:51:53.718Z,0
2018-01-13T16:53:03.428Z,0
2018-01-13T16:54:13.415Z,0